Time;durP1;ratioP1;P1;durP2;ratioP2;P2;SDS_P1;SDS_P2;PMS_P1;PMS_P2;Temp;Humidity;BMP_temperature;BMP_pressure;BME280_temperature;BME280_humidity;BME280_pressure;Samples;Min_cycle;Max_cycle;Signal;HPM_P1;HPM_P2
2022/06/26 00:00:45;;;;;;;0.00;0.00;;;20.10;99.90;;;;;;4934658;29;20210;-72
2022/06/26 00:03:13;;;;;;;0.00;0.00;;;20.00;99.90;;;;;;4934536;29;20194;-74
2022/06/26 00:05:42;;;;;;;0.00;0.00;;;20.00;99.90;;;;;;4935047;29;20285;-73
2022/06/26 00:08:10;;;;;;;0.00;0.00;;;20.10;99.90;;;;;;4934203;29;20202;-72
2022/06/26 00:10:38;;;;;;;0.00;0.00;;;20.10;99.90;;;;;;4935332;29;20218;-74
2022/06/26 00:13:06;;;;;;;0.00;0.00;;;20.10;99.90;;;;;;4934707;29;20207;-73
2022/06/26 00:15:34;;;;;;;0.00;0.00;;;20.00;99.90;;;;;;4935008;29;20206;-73
2022/06/26 00:18:01;;;;;;;0.00;0.00;;;19.90;99.90;;;;;;4934860;29;20222;-72
2022/06/26 00:20:30;;;;;;;0.00;0.00;;;19.80;99.90;;;;;;4934640;29;20222;-73
2022/06/26 00:22:59;;;;;;;0.00;0.00;;;19.90;99.90;;;;;;4934372;29;20210;-72
2022/06/26 00:25:27;;;;;;;0.00;0.00;;;19.90;99.90;;;;;;4934532;29;20682;-72
2022/06/26 00:27:55;;;;;;;0.00;0.00;;;19.90;99.90;;;;;;4934694;29;20203;-72
2022/06/26 00:30:23;;;;;;;0.00;0.00;;;19.90;99.90;;;;;;4916909;29;20232;-72
2022/06/26 00:32:50;;;;;;;0.00;0.00;;;20.00;99.90;;;;;;4934569;29;20198;-72
2022/06/26 00:35:18;;;;;;;0.00;0.00;;;20.00;99.90;;;;;;4933907;29;20190;-72
2022/06/26 00:37:46;;;;;;;0.00;0.00;;;19.80;99.90;;;;;;4934433;29;20206;-73
2022/06/26 00:40:15;;;;;;;0.00;0.00;;;19.70;99.90;;;;;;4917365;29;20225;-73
2022/06/26 00:42:43;;;;;;;0.00;0.00;;;19.50;99.90;;;;;;4915176;29;20333;-73
2022/06/26 00:45:12;;;;;;;0.00;0.00;;;19.40;99.90;;;;;;4930045;29;20206;-73
2022/06/26 00:47:40;;;;;;;0.00;0.00;;;19.20;99.90;;;;;;4926474;29;20214;-73
2022/06/26 00:50:09;;;;;;;0.00;0.00;;;19.00;99.90;;;;;;4915556;29;20226;-73
2022/06/26 00:52:38;;;;;;;0.00;0.00;;;19.00;99.90;;;;;;4907849;29;20248;-72
2022/06/26 00:55:07;;;;;;;0.00;0.00;;;18.90;99.90;;;;;;4934004;29;20194;-73
2022/06/26 00:57:37;;;;;;;0.00;0.00;;;18.90;99.90;;;;;;4917070;29;20210;-72
2022/06/26 01:00:07;;;;;;;0.00;0.00;;;18.80;99.90;;;;;;4933725;29;20222;-72
2022/06/26 01:02:35;;;;;;;0.00;0.00;;;18.80;99.90;;;;;;4934188;29;20205;-73
2022/06/26 01:05:04;;;;;;;0.00;0.00;;;18.80;99.90;;;;;;4934080;29;20197;-73
2022/06/26 01:07:32;;;;;;;0.00;0.00;;;18.70;99.90;;;;;;4933627;29;20198;-73
2022/06/26 01:10:01;;;;;;;0.00;0.00;;;18.80;99.90;;;;;;4933279;29;20214;-73
2022/06/26 01:12:30;;;;;;;0.00;0.00;;;18.90;99.90;;;;;;4917214;29;20237;-72
2022/06/26 01:15:06;;;;;;;0.00;0.00;;;18.80;99.90;;;;;;4917085;29;20201;-73
2022/06/26 01:17:34;;;;;;;0.00;0.00;;;18.80;99.90;;;;;;4934184;29;20210;-73
2022/06/26 01:20:05;;;;;;;0.00;0.00;;;18.80;99.90;;;;;;4916447;29;20233;-74
2022/06/26 01:22:35;;;;;;;0.00;0.00;;;18.80;99.90;;;;;;4917194;29;20205;-74
2022/06/26 01:25:03;;;;;;;0.00;0.00;;;18.80;99.90;;;;;;4933625;29;20285;-74
2022/06/26 01:27:31;;;;;;;0.00;0.00;;;18.90;99.90;;;;;;4932781;29;20261;-74
2022/06/26 01:29:59;;;;;;;0.00;0.00;;;18.90;99.90;;;;;;4912499;29;20224;-74
2022/06/26 01:32:27;;;;;;;0.00;0.00;;;18.90;99.90;;;;;;4905069;29;20214;-74
2022/06/26 01:34:56;;;;;;;0.00;0.00;;;18.90;99.90;;;;;;4913385;29;20331;-74
2022/06/26 01:37:25;;;;;;;0.00;0.00;;;18.90;99.90;;;;;;4916952;29;20210;-74
2022/06/26 01:39:54;;;;;;;0.00;0.00;;;18.90;99.90;;;;;;4916602;29;20233;-73
2022/06/26 01:42:22;;;;;;;0.00;0.00;;;18.90;99.90;;;;;;4933460;29;20281;-73
2022/06/26 01:44:50;;;;;;;0.00;0.00;;;18.90;99.90;;;;;;4916613;29;20206;-74
2022/06/26 01:47:22;;;;;;;0.00;0.00;;;18.80;99.90;;;;;;4916658;29;20234;-74
2022/06/26 01:49:50;;;;;;;0.00;0.00;;;18.70;99.90;;;;;;4917180;29;20273;-74
2022/06/26 01:52:18;;;;;;;0.00;0.00;;;18.70;99.90;;;;;;4920423;29;20210;-74
2022/06/26 01:54:48;;;;;;;0.00;0.00;;;18.60;99.90;;;;;;4920555;29;20206;-73
2022/06/26 01:57:17;;;;;;;0.00;0.00;;;18.60;99.90;;;;;;4920470;29;20209;-75
2022/06/26 01:59:48;;;;;;;0.00;0.00;;;18.60;99.90;;;;;;4920586;29;20653;-74
2022/06/26 02:02:20;;;;;;;0.00;0.00;;;18.60;99.90;;;;;;4920165;29;21398;-74
2022/06/26 02:04:48;;;;;;;0.00;0.00;;;18.70;99.90;;;;;;4922579;29;20240;-71
2022/06/26 02:07:16;;;;;;;0.00;0.00;;;18.60;99.90;;;;;;4937226;29;20282;-71
2022/06/26 02:15:22;;;;;;;0.00;0.00;;;18.50;99.90;;;;;;4919680;29;20221;-71
2022/06/26 02:17:52;;;;;;;0.00;0.00;;;18.50;99.90;;;;;;4931263;29;20202;-70
2022/06/26 02:20:20;;;;;;;0.00;0.00;;;18.50;99.90;;;;;;4919721;29;20229;-71
2022/06/26 02:22:49;;;;;;;0.00;0.00;;;18.60;99.90;;;;;;4920403;29;20202;-70
2022/06/26 02:25:16;;;;;;;0.00;0.00;;;18.60;99.90;;;;;;4934379;29;20618;-69
2022/06/26 02:27:46;;;;;;;0.00;0.00;;;18.50;99.90;;;;;;4912914;29;20210;-70
2022/06/26 02:30:13;;;;;;;0.00;0.00;;;18.40;99.90;;;;;;4936364;29;20218;-70
2022/06/26 02:32:45;;;;;;;0.00;0.00;;;18.40;99.90;;;;;;4919471;29;20226;-70
2022/06/26 02:35:13;;;;;;;0.00;0.00;;;18.40;99.90;;;;;;4935821;29;20686;-70
2022/06/26 02:37:41;;;;;;;0.00;0.00;;;18.40;99.90;;;;;;4935933;29;20197;-70
2022/06/26 02:40:10;;;;;;;0.00;0.00;;;18.40;99.90;;;;;;4934897;29;20226;-70
2022/06/26 02:42:37;;;;;;;0.00;0.00;;;18.40;99.90;;;;;;4919607;29;20210;-69
2022/06/26 02:45:08;;;;;;;0.00;0.00;;;18.60;99.90;;;;;;4936396;29;20285;-70
2022/06/26 02:47:36;;;;;;;0.00;0.00;;;18.50;99.90;;;;;;4919999;29;20210;-72
2022/06/26 02:50:06;;;;;;;0.00;0.00;;;18.20;99.90;;;;;;4919027;29;20222;-71
2022/06/26 02:52:34;;;;;;;0.00;0.00;;;18.20;99.90;;;;;;4919367;29;20206;-70
2022/06/26 02:55:02;;;;;;;0.00;0.00;;;18.10;99.90;;;;;;4919267;29;20316;-70
2022/06/26 02:57:31;;;;;;;0.00;0.00;;;18.00;99.90;;;;;;4919092;29;20757;-69
2022/06/26 02:59:59;;;;;;;0.00;0.00;;;18.00;99.90;;;;;;4918609;29;20277;-69
2022/06/26 03:02:32;;;;;;;0.00;0.00;;;18.10;99.90;;;;;;4917730;29;20202;-69
2022/06/26 03:05:04;;;;;;;0.00;0.00;;;18.00;99.90;;;;;;4919289;29;20210;-69
2022/06/26 03:07:32;;;;;;;0.00;0.00;;;18.00;99.90;;;;;;4919254;29;20227;-69
2022/06/26 03:10:01;;;;;;;0.00;0.00;;;18.00;99.90;;;;;;4934687;29;20226;-69
2022/06/26 03:12:29;;;;;;;0.00;0.00;;;18.00;99.90;;;;;;4918719;29;20206;-71
2022/06/26 03:14:57;;;;;;;0.00;0.00;;;18.00;99.90;;;;;;4935834;29;20636;-69
2022/06/26 03:17:25;;;;;;;0.00;0.00;;;18.10;99.90;;;;;;4918932;29;20206;-69
2022/06/26 03:19:55;;;;;;;0.00;0.00;;;18.10;99.90;;;;;;4908510;29;20226;-70
2022/06/26 03:22:23;;;;;;;0.00;0.00;;;18.10;99.90;;;;;;4919078;29;20215;-69
2022/06/26 03:24:51;;;;;;;0.00;0.00;;;18.10;99.90;;;;;;4919334;29;20234;-69
2022/06/26 03:27:19;;;;;;;0.00;0.00;;;18.00;99.90;;;;;;4917101;29;20289;-69
2022/06/26 03:29:46;;;;;;;0.00;0.00;;;18.00;99.90;;;;;;4918766;29;20309;-69
2022/06/26 03:32:15;;;;;;;0.00;0.00;;;17.90;99.90;;;;;;4918513;29;20245;-70
2022/06/26 03:34:57;;;;;;;0.00;0.00;;;17.90;99.90;;;;;;4917949;29;20232;-70
2022/06/26 03:37:26;;;;;;;0.00;0.00;;;17.90;99.90;;;;;;4927155;29;20203;-78
2022/06/26 03:39:54;;;;;;;0.00;0.00;;;17.90;99.90;;;;;;4934655;29;20222;-71
2022/06/26 03:42:22;;;;;;;0.10;0.10;;;17.90;99.90;;;;;;4916481;29;20595;-71
2022/06/26 03:44:50;;;;;;;0.00;0.00;;;17.90;99.90;;;;;;4918561;29;20212;-71
2022/06/26 03:47:18;;;;;;;0.00;0.00;;;17.90;99.90;;;;;;4917964;29;20206;-71
2022/06/26 03:49:53;;;;;;;0.00;0.00;;;17.90;99.90;;;;;;4935743;29;20269;-71
2022/06/26 03:52:24;;;;;;;0.00;0.00;;;17.90;99.90;;;;;;4918502;29;20214;-70
2022/06/26 03:54:54;;;;;;;0.00;0.00;;;17.90;99.90;;;;;;4914728;29;20230;-72
2022/06/26 03:57:25;;;;;;;0.00;0.00;;;17.90;99.90;;;;;;4917627;29;20206;-74
2022/06/26 03:59:56;;;;;;;0.00;0.00;;;17.80;99.90;;;;;;4926454;29;20616;-71
2022/06/26 04:02:46;;;;;;;0.00;0.00;;;17.80;99.90;;;;;;4926018;29;20218;-71
2022/06/26 04:05:20;;;;;;;0.00;0.00;;;17.80;99.90;;;;;;4917832;29;20209;-71
2022/06/26 04:07:49;;;;;;;0.00;0.00;;;17.90;99.90;;;;;;4914975;29;20211;-72
2022/06/26 04:10:22;;;;;;;0.00;0.00;;;17.90;99.90;;;;;;4899293;29;20250;-70
2022/06/26 04:12:52;;;;;;;0.00;0.00;;;18.00;99.90;;;;;;4918138;29;20198;-71
2022/06/26 04:15:21;;;;;;;0.00;0.00;;;18.10;99.90;;;;;;4917844;29;20205;-71
2022/06/26 04:17:50;;;;;;;0.00;0.00;;;18.10;99.90;;;;;;4918125;29;20550;-71
2022/06/26 04:20:17;;;;;;;0.00;0.00;;;18.10;99.90;;;;;;4918242;29;20226;-70
2022/06/26 04:22:57;;;;;;;0.00;0.00;;;18.10;99.90;;;;;;4915503;29;20206;-71
2022/06/26 04:25:27;;;;;;;0.00;0.00;;;18.10;99.90;;;;;;4925231;29;20225;-71
2022/06/26 04:27:55;;;;;;;0.00;0.00;;;18.20;99.90;;;;;;4919080;29;20238;-71
2022/06/26 04:30:24;;;;;;;0.00;0.00;;;18.10;99.90;;;;;;4918473;29;20317;-73
2022/06/26 04:32:53;;;;;;;0.00;0.00;;;18.30;99.90;;;;;;4921163;29;20245;-71
2022/06/26 04:35:21;;;;;;;0.00;0.00;;;18.30;99.90;;;;;;4934052;29;20234;-72
2022/06/26 04:37:50;;;;;;;0.00;0.00;;;18.30;99.90;;;;;;4937178;29;21668;-73
2022/06/26 04:40:21;;;;;;;0.10;0.10;;;18.50;99.90;;;;;;4917230;29;20226;-72
2022/06/26 04:42:50;;;;;;;0.00;0.00;;;18.40;99.90;;;;;;4917393;29;20270;-72
2022/06/26 04:45:18;;;;;;;0.00;0.00;;;18.50;99.90;;;;;;4916408;29;20198;-73
2022/06/26 04:47:47;;;;;;;0.00;0.00;;;18.60;99.90;;;;;;4917633;29;20685;-73
2022/06/26 04:50:17;;;;;;;0.00;0.00;;;18.50;99.90;;;;;;4917471;29;20219;-73
2022/06/26 04:52:46;;;;;;;0.00;0.00;;;18.50;99.90;;;;;;4917171;29;20670;-73
2022/06/26 04:55:15;;;;;;;0.00;0.00;;;18.50;99.90;;;;;;4917307;29;20203;-72
2022/06/26 04:57:47;;;;;;;0.00;0.00;;;18.60;99.90;;;;;;4932869;29;20206;-73
2022/06/26 05:00:16;;;;;;;0.00;0.00;;;18.70;99.90;;;;;;4915838;29;20737;-73
2022/06/26 05:02:53;;;;;;;0.00;0.00;;;18.80;99.90;;;;;;4910658;29;20255;-73
2022/06/26 05:05:39;;;;;;;0.00;0.00;;;18.90;99.90;;;;;;4914438;29;20675;-72
2022/06/26 05:08:23;;;;;;;0.00;0.00;;;18.90;99.90;;;;;;4915853;29;20210;-72
2022/06/26 05:10:51;;;;;;;0.00;0.00;;;19.10;99.90;;;;;;4898445;29;20330;-72
2022/06/26 05:13:20;;;;;;;0.00;0.00;;;19.10;99.90;;;;;;4920125;29;20286;-72
2022/06/26 05:16:11;;;;;;;0.00;0.00;;;19.10;99.90;;;;;;4916976;29;20202;-72
2022/06/26 05:18:39;;;;;;;0.00;0.00;;;19.10;99.90;;;;;;4932491;29;20298;-72
2022/06/26 05:21:08;;;;;;;0.00;0.00;;;19.20;99.90;;;;;;4916573;29;20242;-71
2022/06/26 05:23:40;;;;;;;0.00;0.00;;;19.30;99.90;;;;;;4926145;29;20213;-72
2022/06/26 05:26:10;;;;;;;0.00;0.00;;;19.30;99.90;;;;;;4918575;29;20198;-72
2022/06/26 05:28:40;;;;;;;0.00;0.00;;;19.30;99.90;;;;;;4937788;29;20198;-71
2022/06/26 05:31:07;;;;;;;0.00;0.00;;;19.50;99.90;;;;;;4920754;29;20212;-72
2022/06/26 05:33:38;;;;;;;0.00;0.00;;;19.50;99.90;;;;;;4936758;29;20573;-72
2022/06/26 05:36:07;;;;;;;0.00;0.00;;;19.60;99.90;;;;;;4917921;29;20754;-71
2022/06/26 05:38:35;;;;;;;0.00;0.00;;;19.70;99.90;;;;;;4910995;29;20214;-71
2022/06/26 05:41:04;;;;;;;0.00;0.00;;;19.80;99.90;;;;;;4921215;29;20230;-73
2022/06/26 05:43:35;;;;;;;0.00;0.00;;;19.90;99.90;;;;;;4928785;29;20228;-71
2022/06/26 05:46:08;;;;;;;0.00;0.00;;;20.00;99.90;;;;;;4920130;29;20575;-71
2022/06/26 05:48:54;;;;;;;0.00;0.00;;;20.10;99.90;;;;;;4937024;29;20229;-72
2022/06/26 05:51:40;;;;;;;0.00;0.00;;;20.20;99.90;;;;;;4933490;29;20229;-71
2022/06/26 05:54:17;;;;;;;0.00;0.00;;;20.40;99.90;;;;;;4919956;29;20221;-71
2022/06/26 05:56:57;;;;;;;0.00;0.00;;;20.50;99.90;;;;;;4935671;29;20198;-72
2022/06/26 05:59:54;;;;;;;0.00;0.00;;;20.60;99.90;;;;;;4914332;29;20226;-73
2022/06/26 06:02:45;;;;;;;0.00;0.00;;;20.70;99.90;;;;;;4918863;29;20726;-71
2022/06/26 06:05:17;;;;;;;0.00;0.00;;;20.80;99.90;;;;;;4918673;29;20209;-71
2022/06/26 06:07:46;;;;;;;0.00;0.00;;;20.90;99.90;;;;;;4920260;29;20202;-72
2022/06/26 06:10:14;;;;;;;0.00;0.00;;;21.00;99.90;;;;;;4920170;29;20222;-72
2022/06/26 06:12:44;;;;;;;0.00;0.00;;;21.10;99.90;;;;;;4920553;29;20278;-72
2022/06/26 06:15:12;;;;;;;0.00;0.00;;;21.20;99.90;;;;;;4919968;29;20206;-72
2022/06/26 06:17:46;;;;;;;0.00;0.00;;;21.30;99.90;;;;;;4919933;29;20202;-72
2022/06/26 06:20:17;;;;;;;0.00;0.00;;;21.40;99.90;;;;;;4920035;29;20226;-72
2022/06/26 06:22:49;;;;;;;0.00;0.00;;;21.50;99.90;;;;;;4919910;29;20233;-72
2022/06/26 06:25:17;;;;;;;0.00;0.00;;;21.60;99.90;;;;;;4919522;29;20213;-72
2022/06/26 06:27:45;;;;;;;0.00;0.00;;;21.70;99.90;;;;;;4936822;29;20198;-73
2022/06/26 06:30:18;;;;;;;0.00;0.00;;;21.90;99.90;;;;;;4919289;29;20265;-72
2022/06/26 06:32:49;;;;;;;0.00;0.00;;;22.00;99.90;;;;;;4934169;29;20213;-72
2022/06/26 06:35:29;;;;;;;0.00;0.00;;;22.20;99.90;;;;;;4919232;29;20698;-73
2022/06/26 06:37:57;;;;;;;0.00;0.00;;;22.30;99.90;;;;;;4918805;29;20202;-72
2022/06/26 06:40:25;;;;;;;0.00;0.00;;;22.40;99.90;;;;;;4915667;29;20218;-72
2022/06/26 06:42:55;;;;;;;0.00;0.00;;;22.60;99.90;;;;;;4935488;29;20226;-72
2022/06/26 06:45:50;;;;;;;0.00;0.00;;;22.70;99.90;;;;;;4931787;29;20305;-72
2022/06/26 06:48:21;;;;;;;0.00;0.00;;;22.80;99.90;;;;;;4919476;29;20206;-72
2022/06/26 06:51:07;;;;;;;0.00;0.00;;;22.90;99.90;;;;;;4936860;29;20567;-73
2022/06/26 06:53:35;;;;;;;0.00;0.00;;;23.00;99.90;;;;;;4919132;29;20202;-72
2022/06/26 06:56:02;;;;;;;0.00;0.00;;;23.20;99.90;;;;;;4919279;29;20205;-72
2022/06/26 06:58:30;;;;;;;0.00;0.00;;;23.40;99.90;;;;;;4931828;29;20214;-72
2022/06/26 07:00:59;;;;;;;0.00;0.00;;;23.80;99.90;;;;;;4912557;29;20230;-72
2022/06/26 07:03:29;;;;;;;0.00;0.00;;;23.80;99.90;;;;;;4918642;29;20269;-73
2022/06/26 07:05:57;;;;;;;0.00;0.00;;;24.00;99.90;;;;;;4935806;29;20213;-73
2022/06/26 07:08:24;;;;;;;0.00;0.00;;;24.10;99.90;;;;;;4934920;29;20229;-73
2022/06/26 07:10:52;;;;;;;0.00;0.00;;;24.10;99.90;;;;;;4919059;29;20285;-72
2022/06/26 07:13:20;;;;;;;0.00;0.00;;;24.20;99.90;;;;;;4918477;29;20206;-72
2022/06/26 07:15:48;;;;;;;0.00;0.00;;;24.40;99.90;;;;;;4919230;29;20782;-72
2022/06/26 07:18:17;;;;;;;0.00;0.00;;;24.50;99.90;;;;;;4935700;29;20489;-72
2022/06/26 07:20:46;;;;;;;0.00;0.00;;;24.70;99.90;;;;;;4917494;29;20758;-73
2022/06/26 07:23:14;;;;;;;0.00;0.00;;;24.70;99.90;;;;;;4918438;29;20228;-72
2022/06/26 07:25:57;;;;;;;0.00;0.00;;;24.80;99.90;;;;;;4914720;29;20211;-73
2022/06/26 07:28:33;;;;;;;0.00;0.00;;;24.80;99.90;;;;;;4925736;29;20663;-72
2022/06/26 07:31:01;;;;;;;0.00;0.00;;;24.90;99.90;;;;;;4944554;29;20217;-72
2022/06/26 07:36:16;;;;;;;0.00;0.00;;;24.90;99.90;;;;;;4933446;29;20214;-72
2022/06/26 07:38:44;;;;;;;0.00;0.00;;;25.00;99.90;;;;;;4931852;29;20250;-72
2022/06/26 07:41:14;;;;;;;0.00;0.00;;;24.90;99.90;;;;;;4946473;29;20261;-72
2022/06/26 07:43:43;;;;;;;0.00;0.00;;;24.90;99.90;;;;;;4917946;29;20603;-72
2022/06/26 07:46:11;;;;;;;0.00;0.00;;;25.10;99.90;;;;;;4918342;29;20206;-72
2022/06/26 07:48:38;;;;;;;0.00;0.00;;;25.30;99.90;;;;;;4917251;29;20555;-73
2022/06/26 07:51:08;;;;;;;0.00;0.00;;;25.40;99.90;;;;;;4941964;29;20271;-72
2022/06/26 07:53:37;;;;;;;0.00;0.00;;;25.70;99.90;;;;;;4939675;29;20195;-72
2022/06/26 07:56:06;;;;;;;0.00;0.00;;;25.80;99.90;;;;;;4939914;29;20218;-72
2022/06/26 07:58:33;;;;;;;0.00;0.00;;;25.80;99.90;;;;;;4935892;29;20210;-72
2022/06/26 08:01:01;;;;;;;0.00;0.00;;;26.00;99.90;;;;;;4933076;29;20613;-72
2022/06/26 08:03:30;;;;;;;0.00;0.00;;;26.20;99.90;;;;;;4935651;29;20637;-72
2022/06/26 08:05:58;;;;;;;0.00;0.00;;;26.40;99.90;;;;;;4934820;29;20210;-75
2022/06/26 08:08:26;;;;;;;0.00;0.00;;;26.60;99.90;;;;;;4935472;29;20237;-75
2022/06/26 08:10:55;;;;;;;0.00;0.00;;;26.90;99.90;;;;;;4918361;29;20262;-76
2022/06/26 08:13:23;;;;;;;0.00;0.00;;;27.10;99.90;;;;;;4935157;29;20324;-76
2022/06/26 08:15:58;;;;;;;0.00;0.00;;;27.20;99.60;;;;;;4933700;29;20205;-76
2022/06/26 08:18:26;;;;;;;0.00;0.00;;;27.10;99.90;;;;;;4933581;29;20211;-75
2022/06/26 08:20:53;;;;;;;0.00;0.00;;;27.30;99.80;;;;;;4933214;29;20205;-75
2022/06/26 08:23:21;;;;;;;0.00;0.00;;;27.40;99.00;;;;;;4929878;29;20235;-75
2022/06/26 08:25:49;;;;;;;0.00;0.00;;;27.60;99.30;;;;;;4929949;29;20205;-75
2022/06/26 08:28:18;;;;;;;0.00;0.00;;;27.70;98.40;;;;;;4934697;29;20190;-76
2022/06/26 08:30:47;;;;;;;0.00;0.00;;;27.80;98.40;;;;;;4914883;29;20214;-75
2022/06/26 08:33:15;;;;;;;0.00;0.00;;;27.90;97.60;;;;;;4926923;29;20195;-75
2022/06/26 08:35:43;;;;;;;0.00;0.00;;;28.00;97.60;;;;;;4917466;29;20603;-76
2022/06/26 08:38:11;;;;;;;0.00;0.00;;;28.20;97.60;;;;;;4934036;29;20293;-76
2022/06/26 08:40:39;;;;;;;0.00;0.00;;;28.30;97.60;;;;;;4929942;29;20225;-76
2022/06/26 08:43:07;;;;;;;0.00;0.00;;;28.50;97.30;;;;;;4934142;29;20222;-76
2022/06/26 08:45:36;;;;;;;0.00;0.00;;;28.00;97.30;;;;;;4927945;29;20236;-75
2022/06/26 08:48:06;;;;;;;0.00;0.00;;;28.10;97.40;;;;;;4933338;29;20214;-75
2022/06/26 08:50:34;;;;;;;0.00;0.00;;;28.20;97.10;;;;;;4933912;29;20229;-76
2022/06/26 08:53:02;;;;;;;0.00;0.00;;;28.30;96.70;;;;;;4934483;29;20230;-75
2022/06/26 08:55:30;;;;;;;0.00;0.00;;;28.40;96.50;;;;;;4934438;29;20210;-76
2022/06/26 08:57:58;;;;;;;0.00;0.00;;;28.10;96.60;;;;;;4934457;29;20619;-75
2022/06/26 09:00:26;;;;;;;0.00;0.00;;;28.30;95.60;;;;;;4932157;29;20218;-76
2022/06/26 09:02:58;;;;;;;0.00;0.00;;;28.40;95.90;;;;;;4934074;29;20225;-75
2022/06/26 09:05:26;;;;;;;0.00;0.00;;;28.70;95.50;;;;;;4934043;29;20599;-76
2022/06/26 09:07:58;;;;;;;0.00;0.00;;;28.80;95.20;;;;;;4918013;29;20203;-76
2022/06/26 09:10:28;;;;;;;0.00;0.00;;;29.00;94.40;;;;;;4934079;29;20226;-77
2022/06/26 09:12:57;;;;;;;0.00;0.00;;;29.00;94.00;;;;;;4934028;29;20210;-76
2022/06/26 09:15:27;;;;;;;0.00;0.00;;;29.20;93.60;;;;;;4934122;29;20241;-76
2022/06/26 09:18:01;;;;;;;0.00;0.00;;;29.60;93.50;;;;;;4933470;29;20213;-76
2022/06/26 09:20:30;;;;;;;0.00;0.00;;;29.80;93.20;;;;;;4933891;29;20725;-76
2022/06/26 09:23:00;;;;;;;0.00;0.00;;;29.70;92.40;;;;;;4934280;29;20241;-78
2022/06/26 09:25:36;;;;;;;0.00;0.00;;;29.90;92.20;;;;;;4934331;29;20558;-76
2022/06/26 09:28:12;;;;;;;0.00;0.00;;;30.00;91.80;;;;;;4933961;29;20261;-76
2022/06/26 09:30:48;;;;;;;0.00;0.00;;;30.30;90.90;;;;;;4933716;29;20765;-76
2022/06/26 09:33:17;;;;;;;0.00;0.00;;;30.30;90.70;;;;;;4932018;29;20198;-77
2022/06/26 09:35:45;;;;;;;0.00;0.00;;;30.30;91.10;;;;;;4933235;29;20542;-75
2022/06/26 09:38:17;;;;;;;0.00;0.00;;;30.10;91.80;;;;;;4934115;29;20194;-76
2022/06/26 09:40:54;;;;;;;0.00;0.00;;;30.40;91.70;;;;;;4933215;29;20574;-76
2022/06/26 09:43:33;;;;;;;0.00;0.00;;;30.30;91.50;;;;;;4933828;29;20214;-75
2022/06/26 09:46:03;;;;;;;0.00;0.00;;;30.50;91.40;;;;;;4933456;29;20213;-76
2022/06/26 09:48:33;;;;;;;0.00;0.00;;;30.60;91.10;;;;;;4934229;29;20234;-76
2022/06/26 09:51:03;;;;;;;0.00;0.00;;;30.80;91.10;;;;;;4933480;29;20208;-74
2022/06/26 09:53:31;;;;;;;0.00;0.00;;;30.90;90.90;;;;;;4934078;29;20206;-76
2022/06/26 09:56:00;;;;;;;0.00;0.00;;;31.00;91.00;;;;;;4937763;29;20231;-74
2022/06/26 09:58:29;;;;;;;0.00;0.00;;;31.10;90.70;;;;;;4933578;29;20726;-75
2022/06/26 10:06:32;;;;;;;0.00;0.00;;;31.20;90.20;;;;;;4934016;29;20209;-76
2022/06/26 10:09:02;;;;;;;0.00;0.00;;;31.10;90.30;;;;;;4934137;29;20222;-76
2022/06/26 10:11:31;;;;;;;0.00;0.00;;;31.00;90.20;;;;;;4934332;29;20697;-75
2022/06/26 10:14:04;;;;;;;0.00;0.00;;;30.60;90.40;;;;;;4937090;29;20686;-77
2022/06/26 10:17:00;;;;;;;0.00;0.00;;;30.50;90.60;;;;;;4937744;29;20571;-76
2022/06/26 10:19:35;;;;;;;0.00;0.00;;;30.10;91.10;;;;;;4938049;29;20214;-75
2022/06/26 10:22:03;;;;;;;0.00;0.00;;;29.90;91.00;;;;;;4937391;29;20736;-76
2022/06/26 10:24:32;;;;;;;0.00;0.00;;;29.70;91.20;;;;;;4931528;29;20247;-76
2022/06/26 10:27:02;;;;;;;0.00;0.00;;;29.70;91.50;;;;;;4936952;29;20213;-76
2022/06/26 10:29:34;;;;;;;0.00;0.00;;;30.00;91.30;;;;;;4936575;29;20289;-77
2022/06/26 10:32:02;;;;;;;0.00;0.00;;;30.10;90.90;;;;;;4936806;29;20253;-76
2022/06/26 10:34:32;;;;;;;0.00;0.00;;;30.20;90.90;;;;;;4936142;29;20235;-76
2022/06/26 10:37:03;;;;;;;0.00;0.00;;;29.90;91.10;;;;;;4937306;29;20202;-75
2022/06/26 10:39:41;;;;;;;0.00;0.00;;;30.10;91.10;;;;;;4936820;29;20230;-76
2022/06/26 10:45:05;;;;;;;0.00;0.00;;;30.60;90.50;;;;;;4936297;29;20233;-76
2022/06/26 10:47:42;;;;;;;0.00;0.00;;;31.10;90.10;;;;;;4934729;29;20214;-75
2022/06/26 10:50:33;;;;;;;0.00;0.00;;;31.30;89.00;;;;;;4936384;29;20210;-77
2022/06/26 10:53:17;;;;;;;0.00;0.00;;;31.70;88.60;;;;;;4936291;29;20265;-76
2022/06/26 10:55:47;;;;;;;0.00;0.00;;;31.70;87.70;;;;;;4928961;29;20210;-76
2022/06/26 10:58:20;;;;;;;0.00;0.00;;;31.30;87.50;;;;;;4936006;29;20612;-76
2022/06/26 11:00:49;;;;;;;0.00;0.00;;;31.10;87.70;;;;;;4936521;29;20705;-77
2022/06/26 11:03:20;;;;;;;0.00;0.00;;;30.50;88.10;;;;;;4936502;29;20198;-77
2022/06/26 11:06:08;;;;;;;0.00;0.00;;;30.20;89.00;;;;;;4928964;29;20292;-76
2022/06/26 11:08:38;;;;;;;0.00;0.00;;;29.70;89.90;;;;;;4917932;29;20209;-77
2022/06/26 11:11:07;;;;;;;0.00;0.00;;;29.70;89.90;;;;;;4919610;29;20199;-77
2022/06/26 11:13:47;;;;;;;0.00;0.00;;;29.60;89.80;;;;;;4936917;29;20217;-76
2022/06/26 11:16:15;;;;;;;0.00;0.00;;;29.90;88.50;;;;;;4936550;29;20717;-77
2022/06/26 11:18:43;;;;;;;0.00;0.00;;;30.30;89.10;;;;;;4936669;29;20223;-77
2022/06/26 11:21:17;;;;;;;0.00;0.00;;;30.50;87.90;;;;;;4938250;29;20760;-77
2022/06/26 11:23:47;;;;;;;0.00;0.00;;;30.80;87.90;;;;;;4934206;29;20221;-77
2022/06/26 11:26:15;;;;;;;0.00;0.00;;;31.20;87.10;;;;;;4936064;29;20201;-78
2022/06/26 11:28:45;;;;;;;0.00;0.00;;;31.70;86.20;;;;;;4936440;29;20705;-76
2022/06/26 11:31:20;;;;;;;0.00;0.00;;;31.90;85.80;;;;;;4935408;29;20201;-76
2022/06/26 11:33:48;;;;;;;0.00;0.00;;;31.90;85.00;;;;;;4935296;29;20233;-74
2022/06/26 11:36:18;;;;;;;0.00;0.00;;;32.20;84.50;;;;;;4935484;29;20673;-74
2022/06/26 11:38:53;;;;;;;0.00;0.00;;;32.30;83.40;;;;;;4935559;29;20228;-74
2022/06/26 11:41:22;;;;;;;0.00;0.00;;;32.40;83.30;;;;;;4935515;29;20201;-73
2022/06/26 11:43:52;;;;;;;0.00;0.00;;;32.70;82.00;;;;;;4935164;29;20612;-74
2022/06/26 11:46:20;;;;;;;0.00;0.00;;;32.80;81.60;;;;;;4935624;29;20765;-74
2022/06/26 11:48:50;;;;;;;0.00;0.00;;;32.30;81.20;;;;;;4935172;29;20297;-74
2022/06/26 11:51:21;;;;;;;0.00;0.00;;;31.90;81.70;;;;;;4934628;29;20656;-73
2022/06/26 11:53:51;;;;;;;0.00;0.00;;;31.90;81.70;;;;;;4937705;29;20292;-74
2022/06/26 11:56:21;;;;;;;0.00;0.00;;;32.20;81.10;;;;;;4933330;29;20202;-73
2022/06/26 11:58:51;;;;;;;0.00;0.00;;;32.50;81.80;;;;;;4926359;29;20276;-73
2022/06/26 12:01:21;;;;;;;0.00;0.00;;;32.60;79.50;;;;;;4935622;29;20208;-73
2022/06/26 12:03:55;;;;;;;0.00;0.00;;;32.20;79.70;;;;;;4935775;29;20213;-74
2022/06/26 12:06:33;;;;;;;0.00;0.00;;;32.40;80.10;;;;;;4932553;29;20198;-73
2022/06/26 12:09:17;;;;;;;0.00;0.00;;;32.30;80.40;;;;;;4923594;29;20221;-73
2022/06/26 12:11:46;;;;;;;0.00;0.00;;;32.40;80.30;;;;;;4936213;29;20206;-73
2022/06/26 12:14:17;;;;;;;0.00;0.00;;;32.80;80.10;;;;;;4936460;29;20201;-74
2022/06/26 12:16:46;;;;;;;0.00;0.00;;;33.00;79.60;;;;;;4936115;29;20708;-74
2022/06/26 12:19:15;;;;;;;0.00;0.00;;;33.20;78.10;;;;;;4936106;29;20240;-74
2022/06/26 12:21:47;;;;;;;0.00;0.00;;;33.40;77.30;;;;;;4926516;29;20549;-73
2022/06/26 12:24:16;;;;;;;0.00;0.00;;;33.30;75.80;;;;;;4935679;29;20292;-73
2022/06/26 12:26:45;;;;;;;0.00;0.00;;;33.40;75.90;;;;;;4918772;29;20272;-74
2022/06/26 12:29:14;;;;;;;0.00;0.00;;;33.00;76.00;;;;;;4935104;29;20277;-73
2022/06/26 12:31:43;;;;;;;0.00;0.00;;;32.90;75.80;;;;;;4935754;29;20212;-74
2022/06/26 12:34:12;;;;;;;0.00;0.00;;;32.60;76.20;;;;;;4933356;29;20552;-73
2022/06/26 12:36:40;;;;;;;0.00;0.00;;;32.60;77.20;;;;;;4935424;29;20229;-73
2022/06/26 12:39:09;;;;;;;0.00;0.00;;;32.50;76.70;;;;;;4935546;29;20596;-73
2022/06/26 12:41:57;;;;;;;0.00;0.00;;;32.40;77.00;;;;;;4953682;29;20194;-73
2022/06/26 12:44:25;;;;;;;0.00;0.00;;;32.20;77.40;;;;;;4934356;29;20202;-73
2022/06/26 12:46:52;;;;;;;0.00;0.00;;;32.20;77.40;;;;;;4933465;29;20704;-73
2022/06/26 12:49:20;;;;;;;0.00;0.00;;;32.40;77.00;;;;;;4933529;29;20265;-73
2022/06/26 12:51:48;;;;;;;0.00;0.00;;;32.50;76.40;;;;;;4935537;29;20252;-73
2022/06/26 12:54:18;;;;;;;0.00;0.00;;;32.60;76.00;;;;;;4933977;29;20205;-73
2022/06/26 12:56:45;;;;;;;0.00;0.00;;;32.30;76.00;;;;;;4935652;29;20205;-74
2022/06/26 12:59:13;;;;;;;0.00;0.00;;;32.20;76.10;;;;;;4934180;29;20301;-74
2022/06/26 13:01:41;;;;;;;0.00;0.00;;;32.10;76.50;;;;;;4934567;29;20213;-76
2022/06/26 13:04:09;;;;;;;0.00;0.00;;;32.50;75.90;;;;;;4934387;29;20593;-77
2022/06/26 13:06:37;;;;;;;0.00;0.00;;;32.60;75.40;;;;;;4935356;29;20217;-75
2022/06/26 13:09:05;;;;;;;0.00;0.00;;;32.80;74.70;;;;;;4916690;29;20221;-75
2022/06/26 13:11:36;;;;;;;0.00;0.00;;;32.40;74.90;;;;;;4934915;29;20198;-77
2022/06/26 13:14:04;;;;;;;0.00;0.00;;;32.10;74.70;;;;;;4934011;29;20559;-76
2022/06/26 13:16:34;;;;;;;0.00;0.00;;;32.00;75.00;;;;;;4934104;29;20206;-77
2022/06/26 13:19:03;;;;;;;0.00;0.00;;;32.30;75.10;;;;;;4931622;29;20269;-77
2022/06/26 13:21:31;;;;;;;0.00;0.00;;;32.60;75.10;;;;;;4936670;29;20194;-75